sensor_id;sensor_type;location;lat;lon;timestamp;temperature;humidity
31046;DHT22;17711;54.018;9.300;2022-12-28T00:02:29;5.90;99.90
31046;DHT22;17711;54.018;9.300;2022-12-28T00:04:58;5.90;99.90
31046;DHT22;17711;54.018;9.300;2022-12-28T00:07:26;5.90;99.90
31046;DHT22;17711;54.018;9.300;2022-12-28T00:09:55;5.90;99.90
31046;DHT22;17711;54.018;9.300;2022-12-28T00:12:23;5.90;99.90
31046;DHT22;17711;54.018;9.300;2022-12-28T00:14:52;5.90;99.90
31046;DHT22;17711;54.018;9.300;2022-12-28T00:17:20;5.90;99.90
31046;DHT22;17711;54.018;9.300;2022-12-28T00:19:50;6.00;99.90
31046;DHT22;17711;54.018;9.300;2022-12-28T00:22:19;6.00;99.90
31046;DHT22;17711;54.018;9.300;2022-12-28T00:24:47;6.00;99.90
31046;DHT22;17711;54.018;9.300;2022-12-28T00:27:16;6.00;99.90
31046;DHT22;17711;54.018;9.300;2022-12-28T00:29:44;6.00;99.90
31046;DHT22;17711;54.018;9.300;2022-12-28T00:32:13;6.00;99.90
31046;DHT22;17711;54.018;9.300;2022-12-28T00:34:41;6.10;99.90
31046;DHT22;17711;54.018;9.300;2022-12-28T00:37:11;6.00;99.90
31046;DHT22;17711;54.018;9.300;2022-12-28T00:39:40;6.00;99.90
31046;DHT22;17711;54.018;9.300;2022-12-28T00:42:09;6.00;99.90
31046;DHT22;17711;54.018;9.300;2022-12-28T00:44:38;6.00;99.90
31046;DHT22;17711;54.018;9.300;2022-12-28T00:47:07;6.10;99.90
31046;DHT22;17711;54.018;9.300;2022-12-28T00:49:35;6.10;99.90
31046;DHT22;17711;54.018;9.300;2022-12-28T00:52:04;6.10;99.90
31046;DHT22;17711;54.018;9.300;2022-12-28T00:54:34;6.10;99.90
31046;DHT22;17711;54.018;9.300;2022-12-28T00:57:03;6.10;99.90
31046;DHT22;17711;54.018;9.300;2022-12-28T00:59:31;6.10;99.90
31046;DHT22;17711;54.018;9.300;2022-12-28T01:02:00;6.10;99.90
31046;DHT22;17711;54.018;9.300;2022-12-28T01:04:29;6.10;99.90
31046;DHT22;17711;54.018;9.300;2022-12-28T01:06:57;6.10;99.90
31046;DHT22;17711;54.018;9.300;2022-12-28T01:09:26;6.10;99.90
31046;DHT22;17711;54.018;9.300;2022-12-28T01:11:56;6.10;99.90
31046;DHT22;17711;54.018;9.300;2022-12-28T01:14:24;6.10;99.90
31046;DHT22;17711;54.018;9.300;2022-12-28T01:16:53;6.00;99.90
31046;DHT22;17711;54.018;9.300;2022-12-28T01:19:22;6.10;99.90
31046;DHT22;17711;54.018;9.300;2022-12-28T01:21:51;6.00;99.90
31046;DHT22;17711;54.018;9.300;2022-12-28T01:24:20;6.00;99.90
31046;DHT22;17711;54.018;9.300;2022-12-28T01:26:48;6.00;99.90
31046;DHT22;17711;54.018;9.300;2022-12-28T01:29:18;5.90;99.90
31046;DHT22;17711;54.018;9.300;2022-12-28T01:31:47;5.90;99.90
31046;DHT22;17711;54.018;9.300;2022-12-28T01:34:16;5.90;99.90
31046;DHT22;17711;54.018;9.300;2022-12-28T01:36:45;5.90;99.90
31046;DHT22;17711;54.018;9.300;2022-12-28T01:39:13;5.90;99.90
31046;DHT22;17711;54.018;9.300;2022-12-28T01:41:42;5.90;99.90
31046;DHT22;17711;54.018;9.300;2022-12-28T01:44:44;5.80;99.90
31046;DHT22;17711;54.018;9.300;2022-12-28T01:47:18;5.80;99.90
31046;DHT22;17711;54.018;9.300;2022-12-28T01:49:53;5.70;99.90
31046;DHT22;17711;54.018;9.300;2022-12-28T01:52:26;5.80;99.90
31046;DHT22;17711;54.018;9.300;2022-12-28T01:55:00;5.80;99.90
31046;DHT22;17711;54.018;9.300;2022-12-28T01:57:33;5.80;99.90
31046;DHT22;17711;54.018;9.300;2022-12-28T02:00:07;5.80;99.90
31046;DHT22;17711;54.018;9.300;2022-12-28T02:02:37;5.80;99.90
31046;DHT22;17711;54.018;9.300;2022-12-28T02:05:07;5.70;99.90
31046;DHT22;17711;54.018;9.300;2022-12-28T02:07:41;5.70;99.90
31046;DHT22;17711;54.018;9.300;2022-12-28T02:10:12;5.70;99.90
31046;DHT22;17711;54.018;9.300;2022-12-28T02:13:03;5.60;99.90
31046;DHT22;17711;54.018;9.300;2022-12-28T02:15:34;5.60;99.90
31046;DHT22;17711;54.018;9.300;2022-12-28T02:18:02;5.60;99.90
31046;DHT22;17711;54.018;9.300;2022-12-28T02:20:39;5.60;99.90
31046;DHT22;17711;54.018;9.300;2022-12-28T02:23:36;5.60;99.90
31046;DHT22;17711;54.018;9.300;2022-12-28T02:26:31;5.60;99.90
31046;DHT22;17711;54.018;9.300;2022-12-28T02:32:46;5.60;99.90
31046;DHT22;17711;54.018;9.300;2022-12-28T02:35:23;5.60;99.90
31046;DHT22;17711;54.018;9.300;2022-12-28T02:37:58;5.60;99.90
31046;DHT22;17711;54.018;9.300;2022-12-28T02:40:31;5.50;99.90
31046;DHT22;17711;54.018;9.300;2022-12-28T02:43:02;5.50;99.90
31046;DHT22;17711;54.018;9.300;2022-12-28T02:45:36;5.50;99.90
31046;DHT22;17711;54.018;9.300;2022-12-28T02:48:23;5.50;99.90
31046;DHT22;17711;54.018;9.300;2022-12-28T02:51:21;5.50;99.90
31046;DHT22;17711;54.018;9.300;2022-12-28T02:54:08;5.50;99.90
31046;DHT22;17711;54.018;9.300;2022-12-28T02:57:09;5.50;99.90
31046;DHT22;17711;54.018;9.300;2022-12-28T02:59:51;5.50;99.90
31046;DHT22;17711;54.018;9.300;2022-12-28T03:02:42;5.50;99.90
31046;DHT22;17711;54.018;9.300;2022-12-28T03:05:22;5.50;99.90
31046;DHT22;17711;54.018;9.300;2022-12-28T03:08:14;5.40;99.90
31046;DHT22;17711;54.018;9.300;2022-12-28T03:10:53;5.40;99.90
31046;DHT22;17711;54.018;9.300;2022-12-28T03:13:27;5.50;99.90
31046;DHT22;17711;54.018;9.300;2022-12-28T03:16:15;5.50;99.90
31046;DHT22;17711;54.018;9.300;2022-12-28T03:18:49;5.40;99.90
31046;DHT22;17711;54.018;9.300;2022-12-28T03:21:45;5.40;99.90
31046;DHT22;17711;54.018;9.300;2022-12-28T03:24:33;5.40;99.90
31046;DHT22;17711;54.018;9.300;2022-12-28T03:27:21;5.40;99.90
31046;DHT22;17711;54.018;9.300;2022-12-28T03:30:10;5.40;99.90
31046;DHT22;17711;54.018;9.300;2022-12-28T03:32:57;5.30;99.90
31046;DHT22;17711;54.018;9.300;2022-12-28T03:35:33;5.30;99.90
31046;DHT22;17711;54.018;9.300;2022-12-28T03:38:09;5.30;99.90
31046;DHT22;17711;54.018;9.300;2022-12-28T03:40:46;5.30;99.90
31046;DHT22;17711;54.018;9.300;2022-12-28T03:43:21;5.30;99.90
31046;DHT22;17711;54.018;9.300;2022-12-28T03:46:16;5.30;99.90
31046;DHT22;17711;54.018;9.300;2022-12-28T03:48:46;5.30;99.90
31046;DHT22;17711;54.018;9.300;2022-12-28T03:51:20;5.30;99.90
31046;DHT22;17711;54.018;9.300;2022-12-28T03:53:50;5.30;99.90
31046;DHT22;17711;54.018;9.300;2022-12-28T03:56:20;5.30;99.90
31046;DHT22;17711;54.018;9.300;2022-12-28T03:58:49;5.30;99.90
31046;DHT22;17711;54.018;9.300;2022-12-28T04:01:19;5.30;99.90
31046;DHT22;17711;54.018;9.300;2022-12-28T04:03:47;5.30;99.90
31046;DHT22;17711;54.018;9.300;2022-12-28T04:06:18;5.30;99.90
31046;DHT22;17711;54.018;9.300;2022-12-28T04:08:47;5.30;99.90
31046;DHT22;17711;54.018;9.300;2022-12-28T04:11:15;5.20;99.90
31046;DHT22;17711;54.018;9.300;2022-12-28T04:13:44;5.30;99.90
31046;DHT22;17711;54.018;9.300;2022-12-28T04:16:13;5.30;99.90
31046;DHT22;17711;54.018;9.300;2022-12-28T04:18:42;5.30;99.90
31046;DHT22;17711;54.018;9.300;2022-12-28T04:21:12;5.30;99.90
31046;DHT22;17711;54.018;9.300;2022-12-28T04:23:43;5.30;99.90
31046;DHT22;17711;54.018;9.300;2022-12-28T04:26:14;5.30;99.90
31046;DHT22;17711;54.018;9.300;2022-12-28T04:28:42;5.30;99.90
31046;DHT22;17711;54.018;9.300;2022-12-28T04:31:12;5.30;99.90
31046;DHT22;17711;54.018;9.300;2022-12-28T04:33:41;5.30;99.90
31046;DHT22;17711;54.018;9.300;2022-12-28T04:36:11;5.30;99.90
31046;DHT22;17711;54.018;9.300;2022-12-28T04:38:42;5.40;99.90
31046;DHT22;17711;54.018;9.300;2022-12-28T04:41:11;5.30;99.90
31046;DHT22;17711;54.018;9.300;2022-12-28T04:43:39;5.40;99.90
31046;DHT22;17711;54.018;9.300;2022-12-28T04:46:11;5.40;99.90
31046;DHT22;17711;54.018;9.300;2022-12-28T04:48:40;5.40;99.90
31046;DHT22;17711;54.018;9.300;2022-12-28T04:51:17;5.40;99.90
31046;DHT22;17711;54.018;9.300;2022-12-28T04:53:49;5.40;99.90
31046;DHT22;17711;54.018;9.300;2022-12-28T04:56:19;5.40;99.90
31046;DHT22;17711;54.018;9.300;2022-12-28T04:58:52;5.40;99.90
31046;DHT22;17711;54.018;9.300;2022-12-28T05:01:21;5.40;99.90
31046;DHT22;17711;54.018;9.300;2022-12-28T05:03:51;5.40;99.90
31046;DHT22;17711;54.018;9.300;2022-12-28T05:06:26;5.30;99.90
31046;DHT22;17711;54.018;9.300;2022-12-28T05:08:56;5.40;99.90
31046;DHT22;17711;54.018;9.300;2022-12-28T05:11:26;5.40;99.90
31046;DHT22;17711;54.018;9.300;2022-12-28T05:13:56;5.40;99.90
31046;DHT22;17711;54.018;9.300;2022-12-28T05:16:26;5.40;99.90
31046;DHT22;17711;54.018;9.300;2022-12-28T05:18:55;5.50;99.90
31046;DHT22;17711;54.018;9.300;2022-12-28T05:21:25;5.40;99.90
31046;DHT22;17711;54.018;9.300;2022-12-28T05:23:55;5.50;99.90
31046;DHT22;17711;54.018;9.300;2022-12-28T05:26:26;5.50;99.90
31046;DHT22;17711;54.018;9.300;2022-12-28T05:28:56;5.50;99.90
31046;DHT22;17711;54.018;9.300;2022-12-28T05:31:25;5.50;99.90
31046;DHT22;17711;54.018;9.300;2022-12-28T05:33:54;5.50;99.90
31046;DHT22;17711;54.018;9.300;2022-12-28T05:36:24;5.50;99.90
31046;DHT22;17711;54.018;9.300;2022-12-28T05:38:53;5.60;99.90
31046;DHT22;17711;54.018;9.300;2022-12-28T05:41:25;5.60;99.90
31046;DHT22;17711;54.018;9.300;2022-12-28T05:43:54;5.60;99.90
31046;DHT22;17711;54.018;9.300;2022-12-28T05:46:25;5.60;99.90
31046;DHT22;17711;54.018;9.300;2022-12-28T05:48:54;5.70;99.90
31046;DHT22;17711;54.018;9.300;2022-12-28T05:51:24;5.70;99.90
31046;DHT22;17711;54.018;9.300;2022-12-28T05:53:53;5.60;99.90
31046;DHT22;17711;54.018;9.300;2022-12-28T05:56:25;5.70;99.90
31046;DHT22;17711;54.018;9.300;2022-12-28T05:58:55;5.70;99.90
31046;DHT22;17711;54.018;9.300;2022-12-28T06:01:25;5.70;99.90
31046;DHT22;17711;54.018;9.300;2022-12-28T06:03:56;5.70;99.90
31046;DHT22;17711;54.018;9.300;2022-12-28T06:06:25;5.70;99.90
31046;DHT22;17711;54.018;9.300;2022-12-28T06:08:54;5.80;99.90
31046;DHT22;17711;54.018;9.300;2022-12-28T06:11:25;5.80;99.90
31046;DHT22;17711;54.018;9.300;2022-12-28T06:13:54;5.80;99.90
31046;DHT22;17711;54.018;9.300;2022-12-28T06:16:25;5.80;99.90
31046;DHT22;17711;54.018;9.300;2022-12-28T06:18:55;5.90;99.90
31046;DHT22;17711;54.018;9.300;2022-12-28T06:21:25;5.90;99.90
31046;DHT22;17711;54.018;9.300;2022-12-28T06:23:55;5.90;99.90
31046;DHT22;17711;54.018;9.300;2022-12-28T06:26:27;6.00;99.90
31046;DHT22;17711;54.018;9.300;2022-12-28T06:28:56;6.00;99.90
31046;DHT22;17711;54.018;9.300;2022-12-28T06:31:26;6.00;99.90
31046;DHT22;17711;54.018;9.300;2022-12-28T06:33:57;6.00;99.90
31046;DHT22;17711;54.018;9.300;2022-12-28T06:36:27;6.00;99.90
31046;DHT22;17711;54.018;9.300;2022-12-28T06:38:57;6.00;99.90
31046;DHT22;17711;54.018;9.300;2022-12-28T06:41:28;6.10;99.90
31046;DHT22;17711;54.018;9.300;2022-12-28T06:43:57;6.10;99.90
31046;DHT22;17711;54.018;9.300;2022-12-28T06:46:27;6.10;99.90
31046;DHT22;17711;54.018;9.300;2022-12-28T06:48:57;6.10;99.90
31046;DHT22;17711;54.018;9.300;2022-12-28T06:51:27;6.10;99.90
31046;DHT22;17711;54.018;9.300;2022-12-28T06:53:56;6.20;99.90
31046;DHT22;17711;54.018;9.300;2022-12-28T06:56:27;6.20;99.90
31046;DHT22;17711;54.018;9.300;2022-12-28T06:58:57;6.20;99.90
31046;DHT22;17711;54.018;9.300;2022-12-28T07:01:31;6.20;99.90
31046;DHT22;17711;54.018;9.300;2022-12-28T07:04:02;6.30;99.90
31046;DHT22;17711;54.018;9.300;2022-12-28T07:06:34;6.30;99.90
31046;DHT22;17711;54.018;9.300;2022-12-28T07:09:05;6.30;99.90
31046;DHT22;17711;54.018;9.300;2022-12-28T07:11:35;6.30;99.90
31046;DHT22;17711;54.018;9.300;2022-12-28T07:14:04;6.30;99.90
31046;DHT22;17711;54.018;9.300;2022-12-28T07:16:33;6.40;99.90
31046;DHT22;17711;54.018;9.300;2022-12-28T07:19:00;6.40;99.90
31046;DHT22;17711;54.018;9.300;2022-12-28T07:21:32;6.40;99.90
31046;DHT22;17711;54.018;9.300;2022-12-28T07:24:01;6.40;99.90
31046;DHT22;17711;54.018;9.300;2022-12-28T07:26:32;6.40;99.90
31046;DHT22;17711;54.018;9.300;2022-12-28T07:29:04;6.40;99.90
31046;DHT22;17711;54.018;9.300;2022-12-28T07:31:34;6.50;99.90
31046;DHT22;17711;54.018;9.300;2022-12-28T07:34:11;6.50;99.90
31046;DHT22;17711;54.018;9.300;2022-12-28T07:36:40;6.50;99.90
31046;DHT22;17711;54.018;9.300;2022-12-28T07:39:08;6.50;99.90
31046;DHT22;17711;54.018;9.300;2022-12-28T07:41:37;6.50;99.90
31046;DHT22;17711;54.018;9.300;2022-12-28T07:44:07;6.60;99.90
31046;DHT22;17711;54.018;9.300;2022-12-28T07:46:36;6.60;99.90
31046;DHT22;17711;54.018;9.300;2022-12-28T07:49:05;6.60;99.90
31046;DHT22;17711;54.018;9.300;2022-12-28T07:51:35;6.60;99.90
31046;DHT22;17711;54.018;9.300;2022-12-28T07:54:04;6.70;99.90
31046;DHT22;17711;54.018;9.300;2022-12-28T07:56:33;6.70;99.90
31046;DHT22;17711;54.018;9.300;2022-12-28T07:59:02;6.70;99.90
31046;DHT22;17711;54.018;9.300;2022-12-28T08:01:34;6.70;99.90
31046;DHT22;17711;54.018;9.300;2022-12-28T08:04:05;6.70;99.90
31046;DHT22;17711;54.018;9.300;2022-12-28T08:06:37;6.80;99.90
31046;DHT22;17711;54.018;9.300;2022-12-28T08:09:07;6.80;99.90
31046;DHT22;17711;54.018;9.300;2022-12-28T08:11:37;6.80;99.90
31046;DHT22;17711;54.018;9.300;2022-12-28T08:14:06;6.80;99.90
31046;DHT22;17711;54.018;9.300;2022-12-28T08:16:38;6.90;99.90
31046;DHT22;17711;54.018;9.300;2022-12-28T08:19:08;6.90;99.90
31046;DHT22;17711;54.018;9.300;2022-12-28T08:21:37;6.90;99.90
31046;DHT22;17711;54.018;9.300;2022-12-28T08:24:07;6.90;99.90
31046;DHT22;17711;54.018;9.300;2022-12-28T08:26:37;7.00;99.90
31046;DHT22;17711;54.018;9.300;2022-12-28T08:29:09;7.00;99.90
31046;DHT22;17711;54.018;9.300;2022-12-28T08:31:42;7.00;99.90
31046;DHT22;17711;54.018;9.300;2022-12-28T08:34:12;7.00;99.90
31046;DHT22;17711;54.018;9.300;2022-12-28T08:36:41;7.10;99.90
31046;DHT22;17711;54.018;9.300;2022-12-28T08:39:10;7.10;99.90
31046;DHT22;17711;54.018;9.300;2022-12-28T08:41:38;7.10;99.90
31046;DHT22;17711;54.018;9.300;2022-12-28T08:44:07;7.10;99.90
31046;DHT22;17711;54.018;9.300;2022-12-28T08:46:36;7.20;99.90
31046;DHT22;17711;54.018;9.300;2022-12-28T08:49:08;7.20;99.90
31046;DHT22;17711;54.018;9.300;2022-12-28T08:51:38;7.20;99.90
31046;DHT22;17711;54.018;9.300;2022-12-28T08:54:08;7.20;99.90
31046;DHT22;17711;54.018;9.300;2022-12-28T08:56:38;7.30;99.90
31046;DHT22;17711;54.018;9.300;2022-12-28T08:59:07;7.30;99.90
31046;DHT22;17711;54.018;9.300;2022-12-28T09:01:38;7.30;99.90
31046;DHT22;17711;54.018;9.300;2022-12-28T09:04:13;7.40;99.90
31046;DHT22;17711;54.018;9.300;2022-12-28T09:06:42;7.40;99.90
31046;DHT22;17711;54.018;9.300;2022-12-28T09:09:12;7.40;99.90
31046;DHT22;17711;54.018;9.300;2022-12-28T09:11:42;7.40;99.90
31046;DHT22;17711;54.018;9.300;2022-12-28T09:14:12;7.40;99.90
31046;DHT22;17711;54.018;9.300;2022-12-28T09:16:50;7.50;99.90
31046;DHT22;17711;54.018;9.300;2022-12-28T09:19:20;7.50;99.90
31046;DHT22;17711;54.018;9.300;2022-12-28T09:21:49;7.50;99.90
31046;DHT22;17711;54.018;9.300;2022-12-28T09:24:19;7.60;99.90
31046;DHT22;17711;54.018;9.300;2022-12-28T09:26:48;7.60;99.90
31046;DHT22;17711;54.018;9.300;2022-12-28T09:29:19;7.60;99.90
31046;DHT22;17711;54.018;9.300;2022-12-28T09:31:47;7.70;99.90
31046;DHT22;17711;54.018;9.300;2022-12-28T09:34:16;7.70;99.90
31046;DHT22;17711;54.018;9.300;2022-12-28T09:37:04;7.70;99.90
31046;DHT22;17711;54.018;9.300;2022-12-28T09:39:33;7.70;99.90
31046;DHT22;17711;54.018;9.300;2022-12-28T09:42:04;7.80;99.90
31046;DHT22;17711;54.018;9.300;2022-12-28T09:44:44;7.80;99.90
31046;DHT22;17711;54.018;9.300;2022-12-28T09:47:22;7.80;99.90
31046;DHT22;17711;54.018;9.300;2022-12-28T09:50:02;7.80;99.90
31046;DHT22;17711;54.018;9.300;2022-12-28T09:52:36;7.90;99.90
31046;DHT22;17711;54.018;9.300;2022-12-28T09:55:15;7.90;99.90
31046;DHT22;17711;54.018;9.300;2022-12-28T09:57:46;8.00;99.90
31046;DHT22;17711;54.018;9.300;2022-12-28T10:00:18;8.00;99.90
31046;DHT22;17711;54.018;9.300;2022-12-28T10:02:50;8.00;99.90
31046;DHT22;17711;54.018;9.300;2022-12-28T10:05:20;8.10;99.90
31046;DHT22;17711;54.018;9.300;2022-12-28T10:07:51;8.10;99.90
31046;DHT22;17711;54.018;9.300;2022-12-28T10:10:21;8.10;99.90
31046;DHT22;17711;54.018;9.300;2022-12-28T10:12:51;8.10;99.90
31046;DHT22;17711;54.018;9.300;2022-12-28T10:15:21;8.10;99.90
31046;DHT22;17711;54.018;9.300;2022-12-28T10:17:51;8.20;99.90
31046;DHT22;17711;54.018;9.300;2022-12-28T10:20:21;8.20;99.90
31046;DHT22;17711;54.018;9.300;2022-12-28T10:22:52;8.20;99.90
31046;DHT22;17711;54.018;9.300;2022-12-28T10:25:24;8.30;99.90
31046;DHT22;17711;54.018;9.300;2022-12-28T10:27:54;8.30;99.90
31046;DHT22;17711;54.018;9.300;2022-12-28T10:30:25;8.40;99.90
31046;DHT22;17711;54.018;9.300;2022-12-28T10:32:55;8.40;99.90
31046;DHT22;17711;54.018;9.300;2022-12-28T10:35:33;8.40;99.90
31046;DHT22;17711;54.018;9.300;2022-12-28T10:38:18;8.40;99.90
31046;DHT22;17711;54.018;9.300;2022-12-28T10:40:56;8.40;99.90
31046;DHT22;17711;54.018;9.300;2022-12-28T10:43:30;8.50;99.90
31046;DHT22;17711;54.018;9.300;2022-12-28T10:46:00;8.50;99.90
31046;DHT22;17711;54.018;9.300;2022-12-28T10:48:31;8.50;99.90
31046;DHT22;17711;54.018;9.300;2022-12-28T10:51:10;8.50;99.90
31046;DHT22;17711;54.018;9.300;2022-12-28T10:53:45;8.50;99.90
31046;DHT22;17711;54.018;9.300;2022-12-28T10:56:22;8.50;99.90
31046;DHT22;17711;54.018;9.300;2022-12-28T10:58:52;8.60;99.90
31046;DHT22;17711;54.018;9.300;2022-12-28T11:01:25;8.60;99.90
31046;DHT22;17711;54.018;9.300;2022-12-28T11:04:00;8.60;99.90
31046;DHT22;17711;54.018;9.300;2022-12-28T11:06:30;8.60;99.90
31046;DHT22;17711;54.018;9.300;2022-12-28T11:09:13;8.60;99.90
31046;DHT22;17711;54.018;9.300;2022-12-28T11:11:43;8.60;99.90
31046;DHT22;17711;54.018;9.300;2022-12-28T11:14:16;8.60;99.90
31046;DHT22;17711;54.018;9.300;2022-12-28T11:16:48;8.70;99.90
31046;DHT22;17711;54.018;9.300;2022-12-28T11:19:16;8.70;99.90
31046;DHT22;17711;54.018;9.300;2022-12-28T11:21:45;8.70;99.90
31046;DHT22;17711;54.018;9.300;2022-12-28T11:24:17;8.70;99.90
31046;DHT22;17711;54.018;9.300;2022-12-28T11:26:48;8.70;99.90
31046;DHT22;17711;54.018;9.300;2022-12-28T11:29:18;8.80;99.90
31046;DHT22;17711;54.018;9.300;2022-12-28T11:31:50;8.80;99.90
31046;DHT22;17711;54.018;9.300;2022-12-28T11:34:25;8.80;99.90
31046;DHT22;17711;54.018;9.300;2022-12-28T11:36:55;8.80;99.90
31046;DHT22;17711;54.018;9.300;2022-12-28T11:39:42;8.80;99.90
31046;DHT22;17711;54.018;9.300;2022-12-28T11:42:50;8.80;99.90
31046;DHT22;17711;54.018;9.300;2022-12-28T11:45:11;8.80;99.90
31046;DHT22;17711;54.018;9.300;2022-12-28T11:47:40;8.80;99.90
31046;DHT22;17711;54.018;9.300;2022-12-28T11:53:21;8.80;99.90
31046;DHT22;17711;54.018;9.300;2022-12-28T11:56:03;8.80;99.90
31046;DHT22;17711;54.018;9.300;2022-12-28T12:01:49;8.80;99.90
31046;DHT22;17711;54.018;9.300;2022-12-28T12:04:34;8.80;99.90
31046;DHT22;17711;54.018;9.300;2022-12-28T12:07:25;8.80;99.90
31046;DHT22;17711;54.018;9.300;2022-12-28T12:10:26;8.80;99.90
31046;DHT22;17711;54.018;9.300;2022-12-28T12:12:56;8.80;99.90
31046;DHT22;17711;54.018;9.300;2022-12-28T12:15:32;8.80;99.90
31046;DHT22;17711;54.018;9.300;2022-12-28T12:18:03;8.80;99.90
31046;DHT22;17711;54.018;9.300;2022-12-28T12:20:46;8.80;99.90
31046;DHT22;17711;54.018;9.300;2022-12-28T12:23:35;8.80;99.90
31046;DHT22;17711;54.018;9.300;2022-12-28T12:26:18;8.80;99.90
31046;DHT22;17711;54.018;9.300;2022-12-28T12:28:49;8.80;99.90
31046;DHT22;17711;54.018;9.300;2022-12-28T12:31:24;8.80;99.90
31046;DHT22;17711;54.018;9.300;2022-12-28T12:34:04;8.80;99.90
31046;DHT22;17711;54.018;9.300;2022-12-28T12:37:04;8.90;99.90
31046;DHT22;17711;54.018;9.300;2022-12-28T12:40:01;8.90;99.90
31046;DHT22;17711;54.018;9.300;2022-12-28T12:42:37;8.90;99.90
31046;DHT22;17711;54.018;9.300;2022-12-28T12:45:16;8.90;99.90
31046;DHT22;17711;54.018;9.300;2022-12-28T12:48:15;8.90;99.90
31046;DHT22;17711;54.018;9.300;2022-12-28T12:51:00;8.90;99.90
31046;DHT22;17711;54.018;9.300;2022-12-28T12:53:55;8.90;99.90
31046;DHT22;17711;54.018;9.300;2022-12-28T12:56:38;8.90;99.90
31046;DHT22;17711;54.018;9.300;2022-12-28T12:59:21;8.90;99.90
31046;DHT22;17711;54.018;9.300;2022-12-28T13:01:58;8.90;99.90
31046;DHT22;17711;54.018;9.300;2022-12-28T13:04:33;8.90;99.90
31046;DHT22;17711;54.018;9.300;2022-12-28T13:07:05;8.90;99.90
31046;DHT22;17711;54.018;9.300;2022-12-28T13:09:42;8.90;99.90
31046;DHT22;17711;54.018;9.300;2022-12-28T13:12:14;8.90;99.90
31046;DHT22;17711;54.018;9.300;2022-12-28T13:14:43;8.90;99.90
31046;DHT22;17711;54.018;9.300;2022-12-28T13:17:15;8.90;99.90
31046;DHT22;17711;54.018;9.300;2022-12-28T13:19:44;9.00;99.90
31046;DHT22;17711;54.018;9.300;2022-12-28T13:22:29;9.00;99.90
31046;DHT22;17711;54.018;9.300;2022-12-28T13:24:58;9.00;99.90
31046;DHT22;17711;54.018;9.300;2022-12-28T13:27:32;9.00;99.90
31046;DHT22;17711;54.018;9.300;2022-12-28T13:30:02;9.00;99.90
31046;DHT22;17711;54.018;9.300;2022-12-28T13:32:34;9.00;99.90
31046;DHT22;17711;54.018;9.300;2022-12-28T13:35:16;9.00;99.90
31046;DHT22;17711;54.018;9.300;2022-12-28T13:38:02;9.00;99.90
31046;DHT22;17711;54.018;9.300;2022-12-28T13:40:32;9.00;99.90
31046;DHT22;17711;54.018;9.300;2022-12-28T13:43:16;9.00;99.90
31046;DHT22;17711;54.018;9.300;2022-12-28T13:45:51;8.90;99.90
31046;DHT22;17711;54.018;9.300;2022-12-28T13:48:22;8.90;99.90
31046;DHT22;17711;54.018;9.300;2022-12-28T13:50:51;8.90;99.90
31046;DHT22;17711;54.018;9.300;2022-12-28T13:53:24;8.90;99.90
31046;DHT22;17711;54.018;9.300;2022-12-28T13:55:57;9.00;99.90
31046;DHT22;17711;54.018;9.300;2022-12-28T13:58:33;8.90;99.90
31046;DHT22;17711;54.018;9.300;2022-12-28T14:01:06;9.00;99.90
31046;DHT22;17711;54.018;9.300;2022-12-28T14:03:37;9.00;99.90
31046;DHT22;17711;54.018;9.300;2022-12-28T14:06:13;9.00;99.90
31046;DHT22;17711;54.018;9.300;2022-12-28T14:08:44;9.00;99.90
31046;DHT22;17711;54.018;9.300;2022-12-28T14:11:15;9.00;99.90
31046;DHT22;17711;54.018;9.300;2022-12-28T14:13:44;9.00;99.90
31046;DHT22;17711;54.018;9.300;2022-12-28T14:16:13;9.00;99.90
31046;DHT22;17711;54.018;9.300;2022-12-28T14:18:43;9.00;99.90
31046;DHT22;17711;54.018;9.300;2022-12-28T14:21:12;9.00;99.90
31046;DHT22;17711;54.018;9.300;2022-12-28T14:23:41;9.00;99.90
31046;DHT22;17711;54.018;9.300;2022-12-28T14:26:19;9.00;99.90
31046;DHT22;17711;54.018;9.300;2022-12-28T14:28:50;9.00;99.90
31046;DHT22;17711;54.018;9.300;2022-12-28T14:31:21;9.00;99.90
31046;DHT22;17711;54.018;9.300;2022-12-28T14:33:53;9.00;99.90
31046;DHT22;17711;54.018;9.300;2022-12-28T14:36:26;9.00;99.90
31046;DHT22;17711;54.018;9.300;2022-12-28T14:38:57;9.10;99.90
31046;DHT22;17711;54.018;9.300;2022-12-28T14:41:37;9.10;99.90
31046;DHT22;17711;54.018;9.300;2022-12-28T14:44:14;9.00;99.90
31046;DHT22;17711;54.018;9.300;2022-12-28T14:46:43;9.10;99.90
31046;DHT22;17711;54.018;9.300;2022-12-28T14:49:33;9.10;99.90
31046;DHT22;17711;54.018;9.300;2022-12-28T14:52:36;9.00;99.90
31046;DHT22;17711;54.018;9.300;2022-12-28T14:55:33;9.00;99.90
31046;DHT22;17711;54.018;9.300;2022-12-28T14:58:12;9.10;99.90
31046;DHT22;17711;54.018;9.300;2022-12-28T15:00:55;9.00;99.90
31046;DHT22;17711;54.018;9.300;2022-12-28T15:03:25;9.00;99.90
31046;DHT22;17711;54.018;9.300;2022-12-28T15:05:57;9.00;99.90
31046;DHT22;17711;54.018;9.300;2022-12-28T15:08:26;9.00;99.90
31046;DHT22;17711;54.018;9.300;2022-12-28T15:10:56;9.00;99.90
31046;DHT22;17711;54.018;9.300;2022-12-28T15:13:28;9.00;99.90
31046;DHT22;17711;54.018;9.300;2022-12-28T15:15:58;9.00;99.90
31046;DHT22;17711;54.018;9.300;2022-12-28T15:18:28;9.00;99.90
31046;DHT22;17711;54.018;9.300;2022-12-28T15:21:02;9.00;99.90
31046;DHT22;17711;54.018;9.300;2022-12-28T15:23:33;9.00;99.90
31046;DHT22;17711;54.018;9.300;2022-12-28T15:26:05;9.00;99.90
31046;DHT22;17711;54.018;9.300;2022-12-28T15:28:38;9.00;99.90
31046;DHT22;17711;54.018;9.300;2022-12-28T15:31:12;9.00;99.90
31046;DHT22;17711;54.018;9.300;2022-12-28T15:33:45;9.00;99.90
31046;DHT22;17711;54.018;9.300;2022-12-28T15:36:18;9.00;99.90
31046;DHT22;17711;54.018;9.300;2022-12-28T15:38:54;9.00;99.90
31046;DHT22;17711;54.018;9.300;2022-12-28T15:41:23;9.00;99.90
31046;DHT22;17711;54.018;9.300;2022-12-28T15:44:13;9.00;99.90
31046;DHT22;17711;54.018;9.300;2022-12-28T15:46:45;9.00;99.90
31046;DHT22;17711;54.018;9.300;2022-12-28T15:49:17;9.00;99.90
31046;DHT22;17711;54.018;9.300;2022-12-28T15:51:46;9.00;99.90
31046;DHT22;17711;54.018;9.300;2022-12-28T15:54:16;9.00;99.90
31046;DHT22;17711;54.018;9.300;2022-12-28T15:56:52;9.00;99.90
31046;DHT22;17711;54.018;9.300;2022-12-28T15:59:22;9.00;99.90
31046;DHT22;17711;54.018;9.300;2022-12-28T16:01:51;9.00;99.90
31046;DHT22;17711;54.018;9.300;2022-12-28T16:04:20;9.00;99.90
31046;DHT22;17711;54.018;9.300;2022-12-28T16:06:50;9.00;99.90
31046;DHT22;17711;54.018;9.300;2022-12-28T16:09:19;9.00;99.90
31046;DHT22;17711;54.018;9.300;2022-12-28T16:11:48;9.00;99.90
31046;DHT22;17711;54.018;9.300;2022-12-28T16:14:23;9.00;99.90
31046;DHT22;17711;54.018;9.300;2022-12-28T16:16:56;9.00;99.90
31046;DHT22;17711;54.018;9.300;2022-12-28T16:19:27;9.00;99.90
31046;DHT22;17711;54.018;9.300;2022-12-28T16:21:56;8.90;99.90
31046;DHT22;17711;54.018;9.300;2022-12-28T16:24:25;8.80;99.90
31046;DHT22;17711;54.018;9.300;2022-12-28T16:26:55;8.80;99.90
31046;DHT22;17711;54.018;9.300;2022-12-28T16:29:27;8.80;99.90
31046;DHT22;17711;54.018;9.300;2022-12-28T16:31:58;8.80;99.90
31046;DHT22;17711;54.018;9.300;2022-12-28T16:34:28;8.80;99.90